Time;durP1;ratioP1;P1;durP2;ratioP2;P2;SDS_P1;SDS_P2;PMS_P1;PMS_P2;Temp;Humidity;BMP_temperature;BMP_pressure;BME280_temperature;BME280_humidity;BME280_pressure;Samples;Min_cycle;Max_cycle;Signal;HPM_P1;HPM_P2
2021/07/07 00:00:18;;;;;;;;;;;18.40;99.90;;;;;;5084293;28;19924;-77
2021/07/07 00:02:45;;;;;;;;;;;18.20;99.90;;;;;;5113380;27;19925;-77
2021/07/07 00:05:13;;;;;;;;;;;18.20;99.90;;;;;;5085367;28;19968;-77
2021/07/07 00:07:40;;;;;;;;;;;18.30;99.90;;;;;;5083494;28;19928;-77
2021/07/07 00:10:08;;;;;;;;;;;18.30;99.90;;;;;;5085110;28;19951;-77
2021/07/07 00:12:35;;;;;;;;;;;18.20;99.90;;;;;;5085220;28;19924;-77
2021/07/07 00:15:10;;;;;;;;;;;18.20;99.90;;;;;;5091333;28;19933;-77
2021/07/07 00:17:37;;;;;;;;;;;18.20;99.90;;;;;;5083084;28;20021;-77
2021/07/07 00:20:08;;;;;;;;;;;18.10;99.90;;;;;;5086024;28;19924;-77
2021/07/07 00:22:35;;;;;;;;;;;18.10;99.90;;;;;;5084805;28;19931;-78
2021/07/07 00:25:04;;;;;;;;;;;18.20;99.90;;;;;;5078154;28;19928;-77
2021/07/07 00:27:32;;;;;;;;;;;18.20;99.90;;;;;;5083088;28;19929;-77
2021/07/07 00:29:59;;;;;;;;;;;18.10;99.90;;;;;;5078867;28;19924;-77
2021/07/07 00:32:26;;;;;;;;;;;18.10;99.90;;;;;;5079795;28;20268;-78
2021/07/07 00:34:53;;;;;;;;;;;18.10;99.90;;;;;;5079164;28;19924;-78
2021/07/07 00:37:20;;;;;;;;;;;18.10;99.90;;;;;;5081086;28;19928;-78
2021/07/07 00:39:47;;;;;;;;;;;18.00;99.90;;;;;;5120538;27;19939;-77
2021/07/07 00:42:14;;;;;;;;;;;18.00;99.90;;;;;;5078366;28;19928;-78
2021/07/07 00:44:41;;;;;;;;;;;18.10;99.90;;;;;;5080902;28;19931;-77
2021/07/07 00:47:08;;;;;;;;;;;18.20;99.90;;;;;;5080676;27;19993;-77
2021/07/07 00:49:34;;;;;;;;;;;18.10;99.90;;;;;;5080554;28;20010;-77
2021/07/07 00:52:03;;;;;;;;;;;18.10;99.90;;;;;;5084219;28;19928;-78
2021/07/07 00:54:31;;;;;;;;;;;18.00;99.90;;;;;;5076478;28;19932;-78
2021/07/07 00:56:58;;;;;;;;;;;18.00;99.90;;;;;;5081563;28;19939;-78
2021/07/07 00:59:25;;;;;;;;;;;18.00;99.90;;;;;;5080414;28;19932;-77
2021/07/07 01:01:53;;;;;;;;;;;18.00;99.90;;;;;;5075145;28;19931;-78
2021/07/07 01:04:20;;;;;;;;;;;17.90;99.90;;;;;;5078802;27;19982;-78
2021/07/07 01:06:47;;;;;;;;;;;18.00;99.90;;;;;;5079477;28;20363;-78
2021/07/07 01:09:14;;;;;;;;;;;18.10;99.90;;;;;;5074662;28;19928;-77
2021/07/07 01:11:41;;;;;;;;;;;18.10;99.90;;;;;;5086033;28;20385;-77
2021/07/07 01:14:08;;;;;;;;;;;18.10;99.90;;;;;;5080756;28;20294;-78
2021/07/07 01:16:36;;;;;;;;;;;18.20;99.90;;;;;;5086096;28;19924;-78
2021/07/07 01:19:03;;;;;;;;;;;18.20;99.90;;;;;;5085605;28;20310;-78
2021/07/07 01:21:30;;;;;;;;;;;18.10;99.90;;;;;;5079035;28;19931;-78
2021/07/07 01:23:57;;;;;;;;;;;18.10;99.90;;;;;;5109138;27;20367;-77
2021/07/07 01:26:24;;;;;;;;;;;18.00;99.90;;;;;;5080708;28;19925;-77
2021/07/07 01:28:50;;;;;;;;;;;18.10;99.90;;;;;;5083598;28;19924;-78
2021/07/07 01:31:17;;;;;;;;;;;18.10;99.90;;;;;;5080441;28;20330;-78
2021/07/07 01:33:46;;;;;;;;;;;18.00;99.90;;;;;;5079377;28;19924;-78
2021/07/07 01:36:13;;;;;;;;;;;18.00;99.90;;;;;;5075913;28;19951;-78
2021/07/07 01:38:39;;;;;;;;;;;18.10;99.90;;;;;;5091752;28;19946;-77
2021/07/07 01:41:06;;;;;;;;;;;17.90;99.90;;;;;;5083060;28;19932;-78
2021/07/07 01:43:33;;;;;;;;;;;17.90;99.90;;;;;;5091635;28;20375;-77
2021/07/07 01:46:00;;;;;;;;;;;17.90;99.90;;;;;;5087735;28;19928;-77
2021/07/07 01:48:27;;;;;;;;;;;17.90;99.90;;;;;;5088197;28;19931;-78
2021/07/07 01:50:54;;;;;;;;;;;17.90;99.90;;;;;;5087003;28;19929;-77
2021/07/07 01:53:20;;;;;;;;;;;18.00;99.90;;;;;;5122179;27;19994;-77
2021/07/07 01:55:47;;;;;;;;;;;17.90;99.90;;;;;;5081013;28;19933;-77
2021/07/07 01:58:14;;;;;;;;;;;17.70;99.90;;;;;;5082808;28;19925;-78
2021/07/07 02:00:41;;;;;;;;;;;17.80;99.90;;;;;;5123352;27;19935;-78
2021/07/07 02:03:08;;;;;;;;;;;17.80;99.90;;;;;;5112837;27;19924;-77
2021/07/07 02:05:37;;;;;;;;;;;17.70;99.90;;;;;;5085929;27;20379;-78
2021/07/07 02:08:05;;;;;;;;;;;17.70;99.90;;;;;;5087624;28;19928;-77
2021/07/07 02:10:32;;;;;;;;;;;17.80;99.90;;;;;;5083398;28;19952;-77
2021/07/07 02:12:59;;;;;;;;;;;17.90;99.90;;;;;;5086773;28;19925;-77
2021/07/07 02:15:28;;;;;;;;;;;17.90;99.90;;;;;;5085359;28;19928;-77
2021/07/07 02:17:58;;;;;;;;;;;17.80;99.90;;;;;;5080843;28;19924;-78
2021/07/07 02:20:26;;;;;;;;;;;17.80;99.90;;;;;;5088897;28;19924;-78
2021/07/07 02:22:53;;;;;;;;;;;17.80;99.90;;;;;;5080091;27;19931;-79
2021/07/07 02:25:27;;;;;;;;;;;17.80;99.90;;;;;;5092970;28;19931;-77
2021/07/07 02:27:57;;;;;;;;;;;17.80;99.90;;;;;;5088983;28;19924;-78
2021/07/07 02:30:26;;;;;;;;;;;17.60;99.90;;;;;;5081895;28;19931;-77
2021/07/07 02:32:53;;;;;;;;;;;17.50;99.90;;;;;;5085477;28;19935;-78
2021/07/07 02:35:21;;;;;;;;;;;17.60;99.90;;;;;;5091316;28;19928;-77
2021/07/07 02:37:50;;;;;;;;;;;17.60;99.90;;;;;;5091147;28;19943;-78
2021/07/07 02:40:17;;;;;;;;;;;17.60;99.90;;;;;;5088038;28;20433;-77
2021/07/07 02:42:45;;;;;;;;;;;17.60;99.90;;;;;;5078729;28;19931;-78
2021/07/07 02:45:12;;;;;;;;;;;17.40;99.90;;;;;;5078955;28;19924;-77
2021/07/07 02:47:40;;;;;;;;;;;17.40;99.90;;;;;;5085580;28;19924;-77
2021/07/07 02:50:08;;;;;;;;;;;17.40;99.90;;;;;;5086505;28;20852;-78
2021/07/07 02:52:37;;;;;;;;;;;17.40;99.90;;;;;;5080882;28;19933;-77
2021/07/07 02:55:04;;;;;;;;;;;17.50;99.90;;;;;;5080329;28;19955;-77
2021/07/07 02:57:55;;;;;;;;;;;17.50;99.90;;;;;;5100031;28;19935;-78
2021/07/07 03:00:20;;;;;;;;;;;17.50;99.90;;;;;;5110768;27;20375;-78
2021/07/07 03:02:47;;;;;;;;;;;17.50;99.90;;;;;;5083961;28;19928;-77
2021/07/07 03:05:14;;;;;;;;;;;17.30;99.90;;;;;;5087718;28;19945;-77
2021/07/07 03:07:41;;;;;;;;;;;17.10;99.90;;;;;;5087291;28;19943;-78
2021/07/07 03:10:09;;;;;;;;;;;17.10;99.90;;;;;;5084284;28;19924;-78
2021/07/07 03:12:36;;;;;;;;;;;17.20;99.90;;;;;;5123492;27;19924;-78
2021/07/07 03:15:04;;;;;;;;;;;17.30;99.90;;;;;;5089684;28;20023;-78
2021/07/07 03:17:31;;;;;;;;;;;17.20;99.90;;;;;;5086749;28;19928;-78
2021/07/07 03:19:58;;;;;;;;;;;17.30;99.90;;;;;;5079166;28;20643;-78
2021/07/07 03:22:25;;;;;;;;;;;17.10;99.90;;;;;;5121194;27;19924;-78
2021/07/07 03:24:52;;;;;;;;;;;17.20;99.90;;;;;;5077721;27;19936;-78
2021/07/07 03:27:19;;;;;;;;;;;17.10;99.90;;;;;;5089151;28;19931;-78
2021/07/07 03:29:46;;;;;;;;;;;17.00;99.90;;;;;;5116927;27;19924;-78
2021/07/07 03:32:13;;;;;;;;;;;17.00;99.90;;;;;;5080391;28;19924;-78
2021/07/07 03:34:40;;;;;;;;;;;17.00;99.90;;;;;;5111074;27;20410;-78
2021/07/07 03:37:07;;;;;;;;;;;17.00;99.90;;;;;;5094372;28;19924;-78
2021/07/07 03:39:33;;;;;;;;;;;17.10;99.90;;;;;;5084913;28;19977;-78
2021/07/07 03:42:00;;;;;;;;;;;17.10;99.90;;;;;;5085403;28;20391;-78
2021/07/07 03:44:27;;;;;;;;;;;17.10;99.90;;;;;;5082048;28;19940;-77
2021/07/07 03:46:54;;;;;;;;;;;17.10;99.90;;;;;;5081386;28;19929;-78
2021/07/07 03:49:21;;;;;;;;;;;16.80;99.90;;;;;;5085566;28;19924;-79
2021/07/07 03:51:48;;;;;;;;;;;16.80;99.90;;;;;;5082291;28;19924;-79
2021/07/07 03:54:15;;;;;;;;;;;17.00;99.90;;;;;;5083516;28;19925;-78
2021/07/07 03:56:42;;;;;;;;;;;17.10;99.90;;;;;;5088841;28;19940;-78
2021/07/07 03:59:08;;;;;;;;;;;17.10;99.90;;;;;;5080041;28;19924;-78
2021/07/07 04:01:35;;;;;;;;;;;17.10;99.90;;;;;;5079613;28;19931;-78
2021/07/07 04:04:02;;;;;;;;;;;17.00;99.90;;;;;;5085533;28;19935;-78
2021/07/07 04:06:29;;;;;;;;;;;16.90;99.90;;;;;;5077819;28;19932;-78
2021/07/07 04:08:56;;;;;;;;;;;16.80;99.90;;;;;;5081433;28;19931;-77
2021/07/07 04:11:23;;;;;;;;;;;16.70;99.90;;;;;;5084865;28;19924;-78
2021/07/07 04:13:51;;;;;;;;;;;16.90;99.90;;;;;;5078409;28;19970;-79
2021/07/07 04:16:19;;;;;;;;;;;16.90;99.90;;;;;;5116541;27;19928;-78
2021/07/07 04:18:45;;;;;;;;;;;17.00;99.90;;;;;;5081244;28;19932;-78
2021/07/07 04:21:13;;;;;;;;;;;17.00;99.90;;;;;;5080902;28;19934;-78
2021/07/07 04:23:39;;;;;;;;;;;17.00;99.90;;;;;;5090684;28;19938;-78
2021/07/07 04:26:06;;;;;;;;;;;17.00;99.90;;;;;;5080800;28;19931;-81
2021/07/07 04:28:33;;;;;;;;;;;17.10;99.90;;;;;;5084963;28;19924;-82
2021/07/07 04:31:00;;;;;;;;;;;17.10;99.90;;;;;;5083586;28;20720;-82
2021/07/07 04:33:27;;;;;;;;;;;17.00;99.90;;;;;;5090773;28;19924;-77
2021/07/07 04:35:54;;;;;;;;;;;16.90;99.90;;;;;;5083676;28;19951;-77
2021/07/07 04:38:21;;;;;;;;;;;17.00;99.90;;;;;;5092671;28;19924;-77
2021/07/07 04:40:48;;;;;;;;;;;17.00;99.90;;;;;;5093533;28;20446;-77
2021/07/07 04:43:14;;;;;;;;;;;17.10;99.90;;;;;;5086019;28;19928;-78
2021/07/07 04:45:41;;;;;;;;;;;17.20;99.90;;;;;;5088294;28;20283;-78
2021/07/07 04:48:08;;;;;;;;;;;17.20;99.90;;;;;;5085399;28;19928;-78
2021/07/07 04:50:36;;;;;;;;;;;17.20;99.90;;;;;;5085134;28;20410;-78
2021/07/07 04:53:03;;;;;;;;;;;17.20;99.90;;;;;;5080405;28;19928;-78
2021/07/07 04:55:30;;;;;;;;;;;17.20;99.90;;;;;;5089664;28;19924;-79
2021/07/07 04:57:58;;;;;;;;;;;17.10;99.90;;;;;;5095884;28;20533;-79
2021/07/07 05:00:25;;;;;;;;;;;17.20;99.90;;;;;;5084223;28;19931;-79
2021/07/07 05:02:52;;;;;;;;;;;17.00;99.90;;;;;;5113319;27;19943;-79
2021/07/07 05:05:20;;;;;;;;;;;17.20;99.90;;;;;;5077271;28;20336;-79
2021/07/07 05:07:48;;;;;;;;;;;17.20;99.90;;;;;;5084689;28;19925;-79
2021/07/07 05:10:15;;;;;;;;;;;17.10;99.90;;;;;;5085081;28;19932;-79
2021/07/07 05:12:43;;;;;;;;;;;17.20;99.90;;;;;;5079318;28;20414;-79
2021/07/07 05:15:14;;;;;;;;;;;17.30;99.90;;;;;;5082598;28;19990;-79
2021/07/07 05:17:41;;;;;;;;;;;17.20;99.90;;;;;;5085422;28;19908;-79
2021/07/07 05:20:09;;;;;;;;;;;17.00;99.90;;;;;;5085470;28;19971;-78
2021/07/07 05:22:36;;;;;;;;;;;16.90;99.90;;;;;;5086393;28;19932;-78
2021/07/07 05:25:03;;;;;;;;;;;16.90;99.90;;;;;;5089980;28;19960;-83
2021/07/07 05:27:33;;;;;;;;;;;17.00;99.90;;;;;;5088203;28;19924;-84
2021/07/07 05:29:59;;;;;;;;;;;17.10;99.90;;;;;;5083860;28;19924;-84
2021/07/07 05:32:26;;;;;;;;;;;17.10;99.90;;;;;;5087459;27;19931;-82
2021/07/07 05:34:55;;;;;;;;;;;17.10;99.90;;;;;;5122946;28;19932;-83
2021/07/07 05:37:23;;;;;;;;;;;17.10;99.90;;;;;;5089634;28;19924;-83
2021/07/07 05:39:51;;;;;;;;;;;17.20;99.90;;;;;;5080212;28;19925;-84
2021/07/07 05:42:20;;;;;;;;;;;17.20;99.90;;;;;;5092127;28;20019;-84
2021/07/07 05:44:50;;;;;;;;;;;17.20;99.90;;;;;;5089320;28;20374;-84
2021/07/07 05:47:18;;;;;;;;;;;17.10;99.90;;;;;;5112899;28;19931;-84
2021/07/07 05:49:45;;;;;;;;;;;17.20;99.90;;;;;;5080900;28;19924;-82
2021/07/07 05:52:12;;;;;;;;;;;17.20;99.90;;;;;;5080154;28;19931;-82
2021/07/07 05:54:39;;;;;;;;;;;17.40;99.90;;;;;;5105018;28;19933;-82
2021/07/07 05:57:06;;;;;;;;;;;17.60;99.90;;;;;;5086125;28;19930;-83
2021/07/07 05:59:33;;;;;;;;;;;17.70;99.90;;;;;;5082622;28;19924;-82
2021/07/07 06:01:59;;;;;;;;;;;17.80;99.90;;;;;;5080473;28;20394;-83
2021/07/07 06:04:27;;;;;;;;;;;18.00;99.90;;;;;;5082229;28;19947;-82
2021/07/07 06:06:56;;;;;;;;;;;17.90;99.90;;;;;;5079535;28;19982;-81
2021/07/07 06:09:23;;;;;;;;;;;17.80;99.90;;;;;;5089178;28;19924;-82
2021/07/07 06:11:50;;;;;;;;;;;17.90;99.90;;;;;;5080888;28;19994;-82
2021/07/07 06:14:17;;;;;;;;;;;18.00;99.90;;;;;;5081482;28;19924;-82
2021/07/07 06:16:45;;;;;;;;;;;17.90;99.90;;;;;;5083102;28;19924;-82
2021/07/07 06:19:15;;;;;;;;;;;18.00;99.90;;;;;;5085531;27;19986;-82
2021/07/07 06:21:42;;;;;;;;;;;18.10;99.90;;;;;;5085493;28;19960;-82
2021/07/07 06:24:09;;;;;;;;;;;18.20;99.90;;;;;;5123705;27;20295;-83
2021/07/07 06:26:35;;;;;;;;;;;18.10;99.90;;;;;;5079605;28;19931;-84
2021/07/07 06:29:04;;;;;;;;;;;18.10;99.90;;;;;;5088642;28;20315;-84
2021/07/07 06:31:34;;;;;;;;;;;18.00;99.90;;;;;;5102364;28;19928;-84
2021/07/07 06:34:01;;;;;;;;;;;18.10;99.90;;;;;;5084240;28;19929;-84
2021/07/07 06:36:28;;;;;;;;;;;18.40;99.90;;;;;;5089902;28;20376;-83
2021/07/07 06:38:56;;;;;;;;;;;18.50;99.90;;;;;;5095646;28;19925;-83
2021/07/07 06:41:22;;;;;;;;;;;18.50;99.90;;;;;;5084760;28;19924;-83
2021/07/07 06:43:49;;;;;;;;;;;18.60;99.90;;;;;;5096347;28;19924;-83
2021/07/07 06:46:17;;;;;;;;;;;18.50;99.90;;;;;;5088964;28;19935;-83
2021/07/07 06:48:44;;;;;;;;;;;18.60;99.90;;;;;;5082889;28;20389;-83
2021/07/07 06:51:11;;;;;;;;;;;18.70;99.90;;;;;;5109344;27;19952;-83
2021/07/07 06:53:37;;;;;;;;;;;18.80;99.90;;;;;;5082170;28;19978;-85
2021/07/07 06:56:04;;;;;;;;;;;18.60;99.90;;;;;;5092926;28;19928;-86
2021/07/07 06:58:32;;;;;;;;;;;18.70;99.90;;;;;;5105668;27;19924;-85
2021/07/07 07:00:59;;;;;;;;;;;18.60;99.90;;;;;;5089613;28;19947;-86
2021/07/07 07:03:26;;;;;;;;;;;18.80;99.90;;;;;;5090951;28;19924;-86
2021/07/07 07:05:52;;;;;;;;;;;18.90;99.90;;;;;;5092790;27;19932;-86
2021/07/07 07:08:20;;;;;;;;;;;18.80;99.90;;;;;;5089986;28;20326;-83
2021/07/07 07:10:47;;;;;;;;;;;18.80;99.90;;;;;;5105547;27;19971;-83
2021/07/07 07:13:14;;;;;;;;;;;18.40;99.90;;;;;;5081487;28;20382;-85
2021/07/07 07:15:41;;;;;;;;;;;18.50;99.90;;;;;;5083475;28;20026;-83
2021/07/07 07:18:08;;;;;;;;;;;18.50;99.90;;;;;;5089498;28;20347;-83
2021/07/07 07:20:36;;;;;;;;;;;18.40;99.90;;;;;;5093837;28;19924;-84
2021/07/07 07:23:04;;;;;;;;;;;18.50;99.90;;;;;;5087912;28;20038;-83
2021/07/07 07:25:34;;;;;;;;;;;18.50;99.90;;;;;;5120277;27;19924;-85
2021/07/07 07:28:01;;;;;;;;;;;18.40;99.90;;;;;;5095020;28;20275;-85
2021/07/07 07:30:30;;;;;;;;;;;18.50;99.90;;;;;;5094458;28;20003;-84
2021/07/07 07:32:57;;;;;;;;;;;18.90;99.90;;;;;;5094392;28;19924;-84
2021/07/07 07:35:26;;;;;;;;;;;19.30;99.90;;;;;;5119576;27;20418;-84
2021/07/07 07:38:03;;;;;;;;;;;19.00;99.90;;;;;;5089599;28;19924;-84
2021/07/07 07:40:37;;;;;;;;;;;19.10;99.90;;;;;;5085688;28;19929;-84
2021/07/07 07:43:06;;;;;;;;;;;18.80;99.90;;;;;;5105775;28;19920;-84
2021/07/07 07:45:33;;;;;;;;;;;18.70;99.90;;;;;;5091789;28;20298;-85
2021/07/07 07:48:00;;;;;;;;;;;18.90;99.90;;;;;;5093503;28;19950;-83
2021/07/07 07:50:27;;;;;;;;;;;19.00;99.90;;;;;;5094152;28;19931;-83
2021/07/07 07:52:54;;;;;;;;;;;19.10;99.90;;;;;;5093049;28;19935;-82
2021/07/07 07:55:21;;;;;;;;;;;19.10;99.90;;;;;;5092828;28;19924;-83
2021/07/07 07:57:49;;;;;;;;;;;19.20;99.90;;;;;;5090265;28;20932;-83
2021/07/07 08:00:18;;;;;;;;;;;19.20;99.90;;;;;;5090011;28;19932;-82
2021/07/07 08:02:48;;;;;;;;;;;19.30;99.90;;;;;;5117433;27;20283;-84
2021/07/07 08:05:16;;;;;;;;;;;19.50;99.90;;;;;;5078301;28;19940;-83
2021/07/07 08:07:43;;;;;;;;;;;19.70;99.90;;;;;;5087741;28;19939;-85
2021/07/07 08:10:12;;;;;;;;;;;19.50;99.90;;;;;;5081776;28;19932;-84
2021/07/07 08:12:39;;;;;;;;;;;19.70;99.90;;;;;;5087738;28;19935;-85
2021/07/07 08:15:08;;;;;;;;;;;19.80;99.90;;;;;;5087243;28;19987;-85
2021/07/07 08:17:50;;;;;;;;;;;19.90;99.90;;;;;;5112802;27;19940;-84
2021/07/07 08:20:17;;;;;;;;;;;19.80;99.90;;;;;;5084025;28;19936;-85
2021/07/07 08:22:50;;;;;;;;;;;19.70;99.90;;;;;;5121369;27;20465;-85
2021/07/07 08:25:19;;;;;;;;;;;19.70;99.90;;;;;;5080797;28;19932;-84
2021/07/07 08:27:46;;;;;;;;;;;19.70;99.90;;;;;;5086015;28;19935;-84
2021/07/07 08:30:14;;;;;;;;;;;19.50;99.90;;;;;;5086777;28;19932;-84
2021/07/07 08:32:41;;;;;;;;;;;19.60;99.90;;;;;;5087031;28;19970;-84
2021/07/07 08:35:09;;;;;;;;;;;19.70;99.90;;;;;;5088731;28;19924;-85
2021/07/07 08:37:37;;;;;;;;;;;19.70;99.90;;;;;;5086259;28;19939;-85
2021/07/07 08:40:05;;;;;;;;;;;20.10;99.90;;;;;;5086082;28;20637;-82
2021/07/07 08:42:35;;;;;;;;;;;20.00;99.90;;;;;;5086683;28;19932;-82
2021/07/07 08:45:09;;;;;;;;;;;20.20;99.90;;;;;;5085529;28;19959;-85
2021/07/07 08:47:48;;;;;;;;;;;20.10;99.90;;;;;;5088665;28;19932;-84
2021/07/07 08:50:19;;;;;;;;;;;19.80;99.90;;;;;;5085369;28;19932;-84
2021/07/07 08:52:47;;;;;;;;;;;19.90;99.90;;;;;;5088172;28;19981;-86
2021/07/07 08:55:21;;;;;;;;;;;20.20;99.90;;;;;;5088059;28;19932;-83
2021/07/07 08:57:48;;;;;;;;;;;20.30;99.90;;;;;;5082048;28;19943;-82
2021/07/07 09:00:17;;;;;;;;;;;20.40;99.90;;;;;;5083582;28;19932;-79
2021/07/07 09:02:48;;;;;;;;;;;20.50;99.90;;;;;;5082761;28;20959;-84
2021/07/07 09:05:15;;;;;;;;;;;20.50;99.90;;;;;;5088941;28;19977;-85
2021/07/07 09:07:45;;;;;;;;;;;20.40;99.90;;;;;;5084051;28;19932;-84
2021/07/07 09:10:32;;;;;;;;;;;20.40;99.90;;;;;;5082889;28;19939;-82
2021/07/07 09:13:10;;;;;;;;;;;20.40;99.90;;;;;;5080925;28;20410;-81
2021/07/07 09:15:38;;;;;;;;;;;20.80;99.90;;;;;;5085735;28;19928;-82
2021/07/07 09:18:05;;;;;;;;;;;21.10;99.90;;;;;;5078563;27;19939;-80
2021/07/07 09:20:37;;;;;;;;;;;20.90;99.90;;;;;;5081605;28;19932;-80
2021/07/07 09:23:17;;;;;;;;;;;20.60;99.90;;;;;;5074284;28;20177;-76
2021/07/07 09:25:48;;;;;;;;;;;20.90;99.90;;;;;;5077055;28;19934;-76
2021/07/07 09:28:25;;;;;;;;;;;20.90;99.90;;;;;;5076806;28;19945;-75
2021/07/07 09:30:52;;;;;;;;;;;21.00;99.90;;;;;;5080962;28;19932;-77
2021/07/07 09:33:21;;;;;;;;;;;20.90;99.90;;;;;;5078966;28;20537;-76
2021/07/07 09:35:48;;;;;;;;;;;21.10;99.90;;;;;;5075286;28;19949;-74
2021/07/07 09:38:17;;;;;;;;;;;21.10;99.90;;;;;;5079280;28;19936;-76
2021/07/07 09:40:45;;;;;;;;;;;21.20;99.90;;;;;;5080054;28;19928;-77
2021/07/07 09:43:18;;;;;;;;;;;21.10;99.90;;;;;;5079411;28;19928;-76
2021/07/07 09:46:04;;;;;;;;;;;21.40;99.90;;;;;;5082323;28;20540;-76
2021/07/07 09:48:36;;;;;;;;;;;21.30;99.90;;;;;;5080998;28;19932;-77
2021/07/07 09:51:03;;;;;;;;;;;21.10;99.90;;;;;;5077059;28;19938;-76
2021/07/07 09:53:30;;;;;;;;;;;21.00;99.90;;;;;;5079239;28;20398;-76
2021/07/07 09:55:57;;;;;;;;;;;21.20;99.90;;;;;;5077014;28;20284;-76
2021/07/07 09:58:24;;;;;;;;;;;21.20;99.90;;;;;;5080683;28;20401;-77
2021/07/07 10:00:50;;;;;;;;;;;21.30;99.90;;;;;;5076769;28;20727;-75
2021/07/07 10:03:18;;;;;;;;;;;21.30;99.90;;;;;;5081154;28;19928;-76
2021/07/07 10:05:47;;;;;;;;;;;21.50;99.90;;;;;;5078746;28;19931;-75
2021/07/07 10:08:14;;;;;;;;;;;21.30;99.90;;;;;;5082950;27;20391;-75
2021/07/07 10:10:41;;;;;;;;;;;21.20;99.90;;;;;;5081624;28;19939;-75
2021/07/07 10:13:11;;;;;;;;;;;21.20;99.90;;;;;;5080287;28;19938;-75
2021/07/07 10:15:38;;;;;;;;;;;21.50;99.90;;;;;;5081248;28;19950;-77
2021/07/07 10:18:07;;;;;;;;;;;21.50;99.90;;;;;;5082863;28;19935;-76
2021/07/07 10:20:34;;;;;;;;;;;21.50;99.90;;;;;;5079154;28;21047;-77
2021/07/07 10:23:02;;;;;;;;;;;21.40;99.90;;;;;;5081591;28;19931;-76
2021/07/07 10:25:30;;;;;;;;;;;21.50;99.90;;;;;;5082324;28;19932;-76
2021/07/07 10:28:00;;;;;;;;;;;21.60;99.90;;;;;;5082697;28;20329;-76
2021/07/07 10:30:56;;;;;;;;;;;21.60;99.90;;;;;;5082641;28;19928;-77
2021/07/07 10:33:27;;;;;;;;;;;21.60;99.90;;;;;;5079865;28;19928;-76
2021/07/07 10:36:16;;;;;;;;;;;21.70;98.90;;;;;;5082194;28;20383;-77
2021/07/07 10:38:50;;;;;;;;;;;22.00;99.10;;;;;;5117837;27;20391;-77
2021/07/07 10:41:37;;;;;;;;;;;21.90;99.20;;;;;;5079582;28;19932;-78
2021/07/07 10:44:04;;;;;;;;;;;21.90;98.70;;;;;;5080561;28;20500;-78
2021/07/07 10:46:50;;;;;;;;;;;22.00;99.90;;;;;;5079341;28;19938;-78
2021/07/07 10:49:18;;;;;;;;;;;21.90;97.00;;;;;;5079938;28;19951;-79
2021/07/07 10:51:46;;;;;;;;;;;21.90;96.80;;;;;;5076957;28;19932;-78
2021/07/07 10:54:23;;;;;;;;;;;22.10;98.90;;;;;;5109305;27;19933;-74
2021/07/07 10:56:50;;;;;;;;;;;22.10;94.70;;;;;;5074920;28;19943;-78
2021/07/07 10:59:32;;;;;;;;;;;22.10;94.70;;;;;;5075231;28;19934;-79
2021/07/07 11:02:08;;;;;;;;;;;22.40;97.20;;;;;;5076603;28;20371;-79
2021/07/07 11:04:40;;;;;;;;;;;22.50;95.10;;;;;;5096143;27;19933;-80
2021/07/07 11:07:26;;;;;;;;;;;22.50;96.50;;;;;;5083487;28;19936;-79
2021/07/07 11:09:54;;;;;;;;;;;22.60;95.40;;;;;;5093807;27;19924;-80
2021/07/07 11:12:26;;;;;;;;;;;22.60;96.80;;;;;;5092491;28;19924;-79
2021/07/07 11:15:19;;;;;;;;;;;22.50;93.90;;;;;;5080496;28;19929;-79
2021/07/07 11:17:49;;;;;;;;;;;22.60;94.60;;;;;;5080459;28;20398;-79
2021/07/07 11:20:18;;;;;;;;;;;22.60;95.20;;;;;;5085745;28;19924;-77
2021/07/07 11:22:46;;;;;;;;;;;22.60;93.80;;;;;;5075672;28;19967;-77
2021/07/07 11:25:14;;;;;;;;;;;22.80;91.10;;;;;;5081806;28;19931;-77
2021/07/07 11:27:42;;;;;;;;;;;22.90;94.50;;;;;;5080207;28;20450;-77
2021/07/07 11:30:11;;;;;;;;;;;23.00;93.10;;;;;;5076659;28;20390;-78
2021/07/07 11:32:41;;;;;;;;;;;23.00;92.30;;;;;;5084366;28;19924;-77
2021/07/07 11:35:09;;;;;;;;;;;22.70;90.20;;;;;;5076020;28;19925;-77
2021/07/07 11:37:37;;;;;;;;;;;22.90;91.40;;;;;;5079949;28;19933;-76
2021/07/07 11:40:04;;;;;;;;;;;23.10;89.70;;;;;;5081048;28;20019;-78
2021/07/07 11:42:31;;;;;;;;;;;23.20;85.40;;;;;;5080271;28;19925;-76
2021/07/07 11:44:58;;;;;;;;;;;23.10;87.00;;;;;;5079249;27;19950;-77
2021/07/07 11:47:31;;;;;;;;;;;23.00;84.60;;;;;;5081250;28;20402;-76
2021/07/07 11:50:01;;;;;;;;;;;22.90;84.30;;;;;;5075664;28;19995;-76
2021/07/07 11:52:29;;;;;;;;;;;23.00;85.80;;;;;;5083469;28;19924;-76
2021/07/07 11:54:57;;;;;;;;;;;22.80;89.70;;;;;;5083588;28;20352;-79
2021/07/07 11:57:23;;;;;;;;;;;23.00;80.80;;;;;;5084311;28;19930;-79
2021/07/07 11:59:51;;;;;;;;;;;23.10;81.30;;;;;;5086526;28;19928;-80
2021/07/07 12:02:19;;;;;;;;;;;23.30;88.50;;;;;;5081311;28;20275;-79
2021/07/07 12:04:46;;;;;;;;;;;23.30;84.60;;;;;;5077965;28;19999;-80
2021/07/07 12:07:13;;;;;;;;;;;23.10;84.70;;;;;;5116776;27;20442;-80
2021/07/07 12:09:40;;;;;;;;;;;23.30;88.90;;;;;;5084830;28;19929;-79
2021/07/07 12:12:08;;;;;;;;;;;23.30;87.00;;;;;;5116208;27;19996;-80
2021/07/07 12:14:36;;;;;;;;;;;23.20;84.10;;;;;;5082223;28;19967;-79
2021/07/07 12:17:03;;;;;;;;;;;23.10;82.40;;;;;;5082971;28;19938;-79
2021/07/07 12:19:31;;;;;;;;;;;23.50;82.80;;;;;;5085090;28;19973;-80
2021/07/07 12:22:05;;;;;;;;;;;23.80;77.60;;;;;;5086718;28;20030;-81
2021/07/07 12:24:35;;;;;;;;;;;24.00;79.10;;;;;;5078007;28;19932;-81
2021/07/07 12:27:06;;;;;;;;;;;24.50;75.70;;;;;;5084118;28;19928;-81
2021/07/07 12:29:34;;;;;;;;;;;26.00;71.00;;;;;;5083403;28;19932;-81
2021/07/07 12:32:05;;;;;;;;;;;27.00;65.50;;;;;;5086300;28;19985;-81
2021/07/07 12:34:36;;;;;;;;;;;29.70;54.60;;;;;;5078968;28;19928;-81
2021/07/07 12:37:08;;;;;;;;;;;29.80;50.90;;;;;;5076563;28;19924;-80
2021/07/07 12:39:56;;;;;;;;;;;31.40;49.20;;;;;;5078400;28;19924;-79
2021/07/07 12:42:33;;;;;;;;;;;33.90;43.70;;;;;;5072588;28;19946;-80
2021/07/07 12:45:12;;;;;;;;;;;36.70;39.00;;;;;;5080020;28;20306;-80
2021/07/07 12:47:40;;;;;;;;;;;36.50;35.80;;;;;;5078998;28;19931;-81
2021/07/07 12:50:14;;;;;;;;;;;36.70;34.60;;;;;;5082794;28;19964;-79
2021/07/07 12:52:45;;;;;;;;;;;36.40;35.60;;;;;;5082268;28;20486;-79
2021/07/07 12:55:14;;;;;;;;;;;35.10;37.60;;;;;;5080746;28;19939;-81
2021/07/07 12:57:50;;;;;;;;;;;34.20;36.40;;;;;;5079019;28;19932;-79
2021/07/07 13:00:31;;;;;;;;;;;33.40;38.70;;;;;;5084442;28;19924;-80
2021/07/07 13:02:58;;;;;;;;;;;33.20;38.80;;;;;;5090964;28;20368;-82
2021/07/07 13:05:32;;;;;;;;;;;31.80;40.10;;;;;;5078406;28;19929;-79
2021/07/07 13:07:59;;;;;;;;;;;31.10;41.40;;;;;;5079622;28;19957;-77
2021/07/07 13:10:43;;;;;;;;;;;30.30;41.10;;;;;;5082024;28;19928;-77
2021/07/07 13:13:19;;;;;;;;;;;30.20;41.70;;;;;;5080030;28;20326;-78
2021/07/07 13:16:02;;;;;;;;;;;28.80;41.20;;;;;;5110248;27;19928;-79
2021/07/07 13:18:30;;;;;;;;;;;29.00;43.40;;;;;;5080991;28;19970;-78
2021/07/07 13:21:02;;;;;;;;;;;29.30;42.90;;;;;;5080579;28;19930;-77
2021/07/07 13:23:29;;;;;;;;;;;29.20;43.20;;;;;;5073510;28;19930;-77
2021/07/07 13:26:14;;;;;;;;;;;29.20;43.10;;;;;;5077316;28;19951;-77
2021/07/07 13:28:43;;;;;;;;;;;29.30;40.80;;;;;;5070921;28;19928;-76
2021/07/07 13:31:11;;;;;;;;;;;29.60;41.90;;;;;;5069928;28;19935;-76
2021/07/07 13:33:38;;;;;;;;;;;28.70;41.00;;;;;;5074750;28;20134;-72
2021/07/07 13:36:05;;;;;;;;;;;28.30;41.10;;;;;;5078060;28;19924;-77
2021/07/07 13:38:33;;;;;;;;;;;28.40;42.10;;;;;;5078524;28;19932;-78
2021/07/07 13:41:00;;;;;;;;;;;28.80;40.00;;;;;;5086049;28;19993;-79
2021/07/07 13:43:26;;;;;;;;;;;29.00;41.80;;;;;;5086648;28;19939;-87
2021/07/07 13:45:53;;;;;;;;;;;28.90;41.00;;;;;;5091991;28;19928;-84
2021/07/07 13:48:21;;;;;;;;;;;29.10;41.40;;;;;;5088213;28;19938;-82
2021/07/07 13:50:48;;;;;;;;;;;28.80;40.70;;;;;;5094725;28;19932;-84
2021/07/07 13:53:15;;;;;;;;;;;28.90;42.90;;;;;;5091859;28;19932;-84
2021/07/07 13:55:42;;;;;;;;;;;28.50;41.30;;;;;;5090536;28;19931;-80
2021/07/07 13:58:09;;;;;;;;;;;28.40;42.80;;;;;;5086389;28;19934;-85
2021/07/07 14:00:36;;;;;;;;;;;27.40;41.00;;;;;;5084041;28;20023;-81
2021/07/07 14:03:03;;;;;;;;;;;27.60;44.50;;;;;;5089816;28;19933;-84
2021/07/07 14:05:30;;;;;;;;;;;27.50;42.90;;;;;;5088106;28;19939;-81
2021/07/07 14:07:57;;;;;;;;;;;27.20;44.80;;;;;;5089350;28;19928;-78
2021/07/07 14:10:24;;;;;;;;;;;27.30;45.00;;;;;;5087192;28;19931;-78
2021/07/07 14:12:51;;;;;;;;;;;27.00;45.70;;;;;;5087331;28;19967;-78
2021/07/07 14:15:18;;;;;;;;;;;26.60;46.80;;;;;;5084843;28;20367;-77
2021/07/07 14:17:44;;;;;;;;;;;26.80;48.00;;;;;;5086139;28;19993;-77
2021/07/07 14:20:12;;;;;;;;;;;26.50;47.80;;;;;;5082038;28;19928;-78
2021/07/07 14:22:41;;;;;;;;;;;26.10;48.70;;;;;;5084325;28;20298;-75
2021/07/07 14:25:09;;;;;;;;;;;26.30;49.30;;;;;;5081072;28;20039;-77